Time;durP1;ratioP1;P1;durP2;ratioP2;P2;SDS_P1;SDS_P2;PMS_P1;PMS_P2;Temp;Humidity;BMP_temperature;BMP_pressure;BME280_temperature;BME280_humidity;BME280_pressure;Samples;Min_cycle;Max_cycle;Signal;HPM_P1;HPM_P2
2021/06/29 00:00:28;;;;;;;11.32;10.43;;;;;;;;;;2054335;28;20186;-50
2021/06/29 00:01:28;;;;;;;10.65;9.80;;;;;;;;;;2062543;28;20166;-53
2021/06/29 00:02:28;;;;;;;11.90;10.88;;;;;;;;;;2048257;28;20560;-51
2021/06/29 00:03:29;;;;;;;10.45;9.55;;;;;;;;;;2040642;28;20212;-53
2021/06/29 00:04:29;;;;;;;11.68;10.57;;;;;;;;;;2057460;28;20178;-49
2021/06/29 00:05:30;;;;;;;12.27;11.02;;;;;;;;;;2061991;28;20185;-54
2021/06/29 00:06:30;;;;;;;11.50;10.50;;;;;;;;;;2063757;28;20240;-53
2021/06/29 00:07:30;;;;;;;11.23;10.23;;;;;;;;;;2064740;28;20231;-50
2021/06/29 00:08:31;;;;;;;10.10;9.30;;;;;;;;;;2064668;28;20186;-50
2021/06/29 00:09:31;;;;;;;9.82;9.02;;;;;;;;;;2063236;28;20174;-51
2021/06/29 00:10:31;;;;;;;10.77;9.77;;;;;;;;;;2058418;28;20210;-50
2021/06/29 00:11:32;;;;;;;10.75;9.65;;;;;;;;;;2062050;28;20657;-57
2021/06/29 00:12:32;;;;;;;10.63;9.73;;;;;;;;;;2049646;28;20175;-53
2021/06/29 00:13:33;;;;;;;9.82;8.88;;;;;;;;;;2052675;28;20174;-53
2021/06/29 00:14:33;;;;;;;10.38;9.50;;;;;;;;;;2057117;28;20791;-52
2021/06/29 00:15:34;;;;;;;10.55;9.65;;;;;;;;;;2061877;28;20165;-50
2021/06/29 00:16:34;;;;;;;10.10;9.30;;;;;;;;;;2056857;28;20682;-55
2021/06/29 00:17:35;;;;;;;10.65;9.57;;;;;;;;;;2054219;28;20185;-55
2021/06/29 00:18:35;;;;;;;11.48;10.57;;;;;;;;;;2061214;28;20272;-52
2021/06/29 00:19:35;;;;;;;11.23;10.30;;;;;;;;;;2062738;28;20162;-54
2021/06/29 00:20:36;;;;;;;10.27;9.40;;;;;;;;;;2055218;28;20273;-49
2021/06/29 00:21:36;;;;;;;10.73;9.93;;;;;;;;;;2053211;28;20200;-54
2021/06/29 00:22:36;;;;;;;10.93;10.02;;;;;;;;;;2048748;28;20706;-53
2021/06/29 00:23:40;;;;;;;11.43;10.52;;;;;;;;;;2063928;28;20213;-52
2021/06/29 00:24:41;;;;;;;10.68;9.77;;;;;;;;;;2056842;28;20710;-53
2021/06/29 00:25:41;;;;;;;12.13;11.02;;;;;;;;;;2056513;28;20207;-52
2021/06/29 00:26:41;;;;;;;11.40;10.50;;;;;;;;;;2064134;28;20186;-51
2021/06/29 00:27:42;;;;;;;10.75;9.75;;;;;;;;;;2053226;28;20221;-52
2021/06/29 00:28:42;;;;;;;11.20;10.32;;;;;;;;;;2073765;28;20853;-54
2021/06/29 00:29:43;;;;;;;11.52;10.52;;;;;;;;;;2060628;28;20178;-50
2021/06/29 00:30:43;;;;;;;11.32;10.05;;;;;;;;;;2060930;28;20179;-51
2021/06/29 00:31:44;;;;;;;11.05;10.05;;;;;;;;;;2054918;28;20696;-50
2021/06/29 00:32:44;;;;;;;11.52;10.48;;;;;;;;;;2065006;28;20182;-51
2021/06/29 00:33:45;;;;;;;11.35;10.35;;;;;;;;;;2050429;28;20812;-53
2021/06/29 00:34:45;;;;;;;12.02;10.90;;;;;;;;;;2053975;28;20187;-52
2021/06/29 00:35:45;;;;;;;11.50;10.55;;;;;;;;;;2063284;28;20265;-50
2021/06/29 00:36:45;;;;;;;12.82;11.82;;;;;;;;;;2056462;28;20240;-54
2021/06/29 00:37:46;;;;;;;11.55;10.55;;;;;;;;;;2058872;28;20197;-51
2021/06/29 00:38:46;;;;;;;12.23;11.13;;;;;;;;;;2063488;28;20257;-49
2021/06/29 00:39:46;;;;;;;12.10;11.10;;;;;;;;;;2051454;28;20207;-52
2021/06/29 00:40:47;;;;;;;12.23;11.32;;;;;;;;;;2065672;28;20543;-51
2021/06/29 00:41:47;;;;;;;13.48;12.23;;;;;;;;;;2058363;28;20166;-50
2021/06/29 00:42:47;;;;;;;13.57;12.25;;;;;;;;;;2058010;28;20257;-51
2021/06/29 00:43:48;;;;;;;12.30;11.25;;;;;;;;;;2049831;28;20285;-51
2021/06/29 00:44:49;;;;;;;13.20;12.00;;;;;;;;;;2050258;28;20255;-50
2021/06/29 00:45:49;;;;;;;13.63;12.15;;;;;;;;;;2050381;29;20549;-50
2021/06/29 00:46:50;;;;;;;12.20;11.27;;;;;;;;;;2050607;28;20237;-50
2021/06/29 00:47:50;;;;;;;12.77;11.68;;;;;;;;;;2050579;28;20670;-50
2021/06/29 00:48:50;;;;;;;12.77;11.68;;;;;;;;;;2050728;29;20317;-52
2021/06/29 00:49:51;;;;;;;12.95;11.70;;;;;;;;;;2049805;28;20178;-53
2021/06/29 00:50:51;;;;;;;11.65;10.65;;;;;;;;;;2052795;28;20182;-50
2021/06/29 00:51:51;;;;;;;12.63;11.60;;;;;;;;;;2057584;28;20175;-50
2021/06/29 00:52:52;;;;;;;13.00;11.88;;;;;;;;;;2057684;28;20248;-53
2021/06/29 00:53:52;;;;;;;12.65;11.65;;;;;;;;;;2058488;28;20198;-53
2021/06/29 00:54:52;;;;;;;13.27;12.13;;;;;;;;;;2075980;23;20702;-61
2021/06/29 00:55:53;;;;;;;12.82;11.82;;;;;;;;;;2066789;28;20636;-63
2021/06/29 00:56:53;;;;;;;14.13;12.73;;;;;;;;;;2071608;28;20202;-62
2021/06/29 00:57:53;;;;;;;13.25;12.13;;;;;;;;;;2073284;28;20692;-63
2021/06/29 00:58:53;;;;;;;12.27;11.20;;;;;;;;;;2066712;28;20662;-63
2021/06/29 00:59:54;;;;;;;13.68;12.43;;;;;;;;;;2073933;28;20265;-61
2021/06/29 01:00:54;;;;;;;13.77;12.55;;;;;;;;;;2074474;28;20712;-62
2021/06/29 01:01:54;;;;;;;13.30;12.10;;;;;;;;;;2071201;28;20211;-62
2021/06/29 01:02:54;;;;;;;13.07;11.98;;;;;;;;;;2065193;28;20664;-62
2021/06/29 01:03:55;;;;;;;13.60;12.27;;;;;;;;;;2065788;28;20829;-62
2021/06/29 01:04:55;;;;;;;13.95;12.75;;;;;;;;;;2073336;28;20712;-62
2021/06/29 01:05:55;;;;;;;13.00;11.70;;;;;;;;;;2062819;28;20201;-62
2021/06/29 01:06:56;;;;;;;13.25;12.20;;;;;;;;;;2055183;28;20193;-62
2021/06/29 01:07:56;;;;;;;12.90;11.90;;;;;;;;;;2049292;28;20171;-62
2021/06/29 01:08:57;;;;;;;12.77;11.73;;;;;;;;;;2057159;28;20189;-62
2021/06/29 01:09:57;;;;;;;14.73;13.32;;;;;;;;;;2059512;28;20217;-62
2021/06/29 01:10:58;;;;;;;13.30;12.20;;;;;;;;;;2064182;28;20181;-63
2021/06/29 01:11:58;;;;;;;13.90;12.70;;;;;;;;;;2062993;28;20237;-62
2021/06/29 01:12:58;;;;;;;13.80;12.65;;;;;;;;;;2065305;28;20220;-63
2021/06/29 01:14:08;;;;;;;12.85;11.85;;;;;;;;;;2064042;28;20179;-58
2021/06/29 01:15:09;;;;;;;12.15;10.98;;;;;;;;;;2062051;28;20181;-61
2021/06/29 01:16:09;;;;;;;12.45;11.43;;;;;;;;;;2058255;28;20180;-62
2021/06/29 01:17:10;;;;;;;13.68;12.18;;;;;;;;;;2061548;28;20162;-60
2021/06/29 01:18:11;;;;;;;13.13;11.95;;;;;;;;;;2057194;28;20210;-61
2021/06/29 01:19:13;;;;;;;13.65;12.55;;;;;;;;;;2061353;28;20212;-61
2021/06/29 01:20:16;;;;;;;13.65;12.45;;;;;;;;;;2064687;28;20256;-61
2021/06/29 01:21:19;;;;;;;14.32;13.00;;;;;;;;;;2061176;28;20663;-62
2021/06/29 01:22:22;;;;;;;13.45;12.35;;;;;;;;;;2060668;28;20169;-59
2021/06/29 01:23:25;;;;;;;14.75;13.38;;;;;;;;;;2066187;28;20177;-60
2021/06/29 01:24:30;;;;;;;14.68;13.48;;;;;;;;;;2062483;28;20244;-61
2021/06/29 01:25:32;;;;;;;13.85;12.55;;;;;;;;;;2059138;28;20241;-61
2021/06/29 01:26:35;;;;;;;13.93;12.63;;;;;;;;;;2061785;28;20242;-62
2021/06/29 01:27:42;;;;;;;14.32;13.00;;;;;;;;;;2066159;28;20185;-62
2021/06/29 01:31:09;;;;;;;15.57;14.02;;;;;;;;;;2053372;28;20207;-61
2021/06/29 01:32:13;;;;;;;13.77;12.68;;;;;;;;;;2054973;28;20185;-61
2021/06/29 01:33:17;;;;;;;14.55;13.35;;;;;;;;;;2051503;28;20225;-60
2021/06/29 01:34:18;;;;;;;15.57;13.57;;;;;;;;;;2059188;28;20668;-59
2021/06/29 01:35:18;;;;;;;15.25;12.98;;;;;;;;;;2057949;28;20222;-61
2021/06/29 01:36:23;;;;;;;13.07;11.93;;;;;;;;;;2059599;28;20194;-60
2021/06/29 01:37:23;;;;;;;14.23;12.93;;;;;;;;;;2060192;28;20226;-62
2021/06/29 01:38:24;;;;;;;13.80;12.63;;;;;;;;;;2063372;28;20265;-61
2021/06/29 01:39:24;;;;;;;15.48;13.95;;;;;;;;;;2059245;28;20447;-61
2021/06/29 01:40:28;;;;;;;14.88;13.57;;;;;;;;;;2061620;28;20248;-60
2021/06/29 01:41:29;;;;;;;14.77;13.50;;;;;;;;;;2057317;28;20739;-60
2021/06/29 01:42:29;;;;;;;15.18;13.65;;;;;;;;;;2062258;28;20305;-61
2021/06/29 01:43:39;;;;;;;14.27;13.10;;;;;;;;;;2060562;28;20277;-62
2021/06/29 01:44:42;;;;;;;15.75;14.13;;;;;;;;;;2055146;28;20751;-61
2021/06/29 01:45:45;;;;;;;15.23;13.85;;;;;;;;;;2065272;28;20268;-60
2021/06/29 01:46:48;;;;;;;14.93;13.65;;;;;;;;;;2050169;28;20205;-60
2021/06/29 01:47:54;;;;;;;15.18;13.68;;;;;;;;;;2054416;28;20183;-61
2021/06/29 01:48:55;;;;;;;15.90;14.60;;;;;;;;;;2060341;28;20170;-61
2021/06/29 01:49:56;;;;;;;14.52;13.18;;;;;;;;;;2064290;28;20248;-60
2021/06/29 01:50:56;;;;;;;15.07;13.65;;;;;;;;;;2057345;28;20174;-62
2021/06/29 01:51:56;;;;;;;14.52;13.27;;;;;;;;;;2048947;29;20230;-62
2021/06/29 01:52:58;;;;;;;16.35;14.88;;;;;;;;;;2058005;28;20261;-62
2021/06/29 01:53:59;;;;;;;14.15;12.95;;;;;;;;;;2058642;28;20709;-61
2021/06/29 01:54:59;;;;;;;15.20;13.77;;;;;;;;;;2054225;28;20266;-60
2021/06/29 01:55:59;;;;;;;14.23;12.93;;;;;;;;;;2063797;28;20538;-61
2021/06/29 01:56:59;;;;;;;13.82;12.73;;;;;;;;;;2054111;28;20253;-59
2021/06/29 01:58:00;;;;;;;14.52;13.23;;;;;;;;;;2059996;28;20174;-61
2021/06/29 01:59:07;;;;;;;16.70;14.88;;;;;;;;;;2060533;28;20581;-61
2021/06/29 02:00:09;;;;;;;15.52;14.10;;;;;;;;;;2066354;28;20193;-61
2021/06/29 02:01:12;;;;;;;16.60;15.20;;;;;;;;;;2058014;28;20553;-61
2021/06/29 02:02:12;;;;;;;16.55;14.93;;;;;;;;;;2061383;28;20182;-58
2021/06/29 02:03:13;;;;;;;17.75;15.32;;;;;;;;;;2057600;28;20176;-61
2021/06/29 02:04:13;;;;;;;16.15;14.55;;;;;;;;;;2065421;28;20223;-62
2021/06/29 02:05:14;;;;;;;17.20;15.60;;;;;;;;;;2064979;28;20526;-62
2021/06/29 02:06:14;;;;;;;16.10;14.82;;;;;;;;;;2064854;28;20217;-62
2021/06/29 02:07:15;;;;;;;16.30;14.85;;;;;;;;;;2068051;28;20196;-61
2021/06/29 02:08:15;;;;;;;17.60;15.88;;;;;;;;;;2061290;28;20170;-60
2021/06/29 02:09:16;;;;;;;15.90;14.50;;;;;;;;;;2059926;28;20186;-62
2021/06/29 02:10:17;;;;;;;17.80;16.10;;;;;;;;;;2065438;28;20201;-62
2021/06/29 02:11:17;;;;;;;18.77;17.15;;;;;;;;;;2059489;28;20162;-62
2021/06/29 02:12:18;;;;;;;17.75;16.08;;;;;;;;;;2053792;28;20170;-61
2021/06/29 02:13:18;;;;;;;17.05;15.45;;;;;;;;;;2058311;28;20185;-62
2021/06/29 02:14:19;;;;;;;17.73;16.17;;;;;;;;;;2066356;28;20177;-62
2021/06/29 02:15:20;;;;;;;17.30;15.88;;;;;;;;;;2060486;28;20236;-61
2021/06/29 02:16:20;;;;;;;17.17;15.52;;;;;;;;;;2061773;28;20181;-61
2021/06/29 02:17:21;;;;;;;17.30;15.52;;;;;;;;;;2057683;28;20551;-61
2021/06/29 02:18:21;;;;;;;18.02;16.40;;;;;;;;;;2058470;28;20174;-62
2021/06/29 02:19:22;;;;;;;18.38;16.65;;;;;;;;;;2061957;28;20181;-62
2021/06/29 02:20:22;;;;;;;17.80;16.30;;;;;;;;;;2066946;28;20190;-62
2021/06/29 02:21:22;;;;;;;17.38;15.77;;;;;;;;;;2061776;28;20196;-62
2021/06/29 02:22:23;;;;;;;17.90;16.13;;;;;;;;;;2059150;28;20170;-63
2021/06/29 02:23:23;;;;;;;19.00;16.02;;;;;;;;;;2061345;28;20181;-61
2021/06/29 02:24:23;;;;;;;19.08;17.23;;;;;;;;;;2055450;28;20202;-61
2021/06/29 02:25:24;;;;;;;18.20;16.42;;;;;;;;;;2060319;28;20531;-62
2021/06/29 02:26:24;;;;;;;18.38;16.08;;;;;;;;;;2058694;28;20710;-62
2021/06/29 02:27:28;;;;;;;18.27;16.63;;;;;;;;;;2056070;28;20170;-62
2021/06/29 02:28:29;;;;;;;16.02;14.60;;;;;;;;;;2049103;28;20175;-61
2021/06/29 02:29:29;;;;;;;18.02;16.33;;;;;;;;;;2048321;28;20181;-61
2021/06/29 02:30:29;;;;;;;17.13;15.52;;;;;;;;;;2053931;28;20743;-63
2021/06/29 02:31:30;;;;;;;17.67;15.98;;;;;;;;;;2055886;28;20710;-62
2021/06/29 02:32:30;;;;;;;18.55;16.95;;;;;;;;;;2061693;28;20248;-63
2021/06/29 02:33:30;;;;;;;18.45;16.65;;;;;;;;;;2056612;28;20190;-61
2021/06/29 02:34:30;;;;;;;18.77;17.02;;;;;;;;;;2061674;28;20213;-61
2021/06/29 02:35:31;;;;;;;18.40;16.60;;;;;;;;;;2055754;28;20175;-62
2021/06/29 02:36:31;;;;;;;19.00;17.30;;;;;;;;;;2061930;28;20268;-63
2021/06/29 02:37:31;;;;;;;17.77;16.20;;;;;;;;;;2055987;28;20170;-62
2021/06/29 02:38:32;;;;;;;18.60;16.90;;;;;;;;;;2061598;28;20795;-62
2021/06/29 02:39:32;;;;;;;19.10;17.25;;;;;;;;;;2058072;28;20264;-61
2021/06/29 02:40:32;;;;;;;18.30;16.50;;;;;;;;;;2055127;28;20225;-59
2021/06/29 02:41:33;;;;;;;18.65;16.92;;;;;;;;;;2056715;28;20205;-62
2021/06/29 02:42:33;;;;;;;19.90;17.42;;;;;;;;;;2063115;28;20197;-61
2021/06/29 02:43:36;;;;;;;19.58;17.63;;;;;;;;;;2057933;28;20170;-61
2021/06/29 02:44:37;;;;;;;18.60;16.80;;;;;;;;;;2063168;28;20583;-61
2021/06/29 02:45:37;;;;;;;18.35;16.58;;;;;;;;;;2065694;28;20177;-62
2021/06/29 02:46:37;;;;;;;18.70;16.83;;;;;;;;;;2064887;28;20185;-61
2021/06/29 02:47:38;;;;;;;18.83;16.83;;;;;;;;;;2064870;28;20180;-62
2021/06/29 02:48:38;;;;;;;19.77;17.83;;;;;;;;;;2064834;28;20174;-62
2021/06/29 02:49:38;;;;;;;19.77;17.88;;;;;;;;;;2072906;28;20581;-60
2021/06/29 02:50:39;;;;;;;18.25;16.55;;;;;;;;;;2065643;28;20181;-61
2021/06/29 02:51:40;;;;;;;19.00;17.13;;;;;;;;;;2065019;28;20169;-62
2021/06/29 02:52:41;;;;;;;21.13;17.42;;;;;;;;;;2065522;28;20268;-62
2021/06/29 02:53:41;;;;;;;20.38;18.50;;;;;;;;;;2064845;28;20181;-61
2021/06/29 02:54:42;;;;;;;19.10;17.40;;;;;;;;;;2064784;28;20736;-62
2021/06/29 02:55:42;;;;;;;19.38;17.58;;;;;;;;;;2055247;28;20213;-60
2021/06/29 02:56:42;;;;;;;19.58;17.70;;;;;;;;;;2049399;28;20214;-61
2021/06/29 02:57:43;;;;;;;19.52;17.52;;;;;;;;;;2048716;28;20191;-62
2021/06/29 02:58:43;;;;;;;19.40;17.33;;;;;;;;;;2053391;28;20277;-59
2021/06/29 02:59:44;;;;;;;20.08;18.15;;;;;;;;;;2057353;28;20202;-59
2021/06/29 03:00:44;;;;;;;19.17;17.38;;;;;;;;;;2057605;28;20582;-59
2021/06/29 03:01:45;;;;;;;19.33;17.63;;;;;;;;;;2056972;28;20181;-61
2021/06/29 03:02:45;;;;;;;20.58;18.58;;;;;;;;;;2057327;28;20178;-61
2021/06/29 03:03:45;;;;;;;19.95;17.80;;;;;;;;;;2052808;28;20249;-62
2021/06/29 03:04:46;;;;;;;19.65;17.65;;;;;;;;;;2056046;28;20996;-62
2021/06/29 03:05:46;;;;;;;19.70;17.83;;;;;;;;;;2050030;28;20183;-62
2021/06/29 03:06:46;;;;;;;19.40;17.20;;;;;;;;;;2064359;28;20181;-61
2021/06/29 03:07:46;;;;;;;20.35;18.27;;;;;;;;;;2049947;28;20334;-61
2021/06/29 03:08:47;;;;;;;19.70;17.65;;;;;;;;;;2053393;28;20179;-59
2021/06/29 03:09:47;;;;;;;18.85;16.90;;;;;;;;;;2058699;28;20261;-62
2021/06/29 03:10:47;;;;;;;19.88;17.83;;;;;;;;;;2058031;28;20213;-62
2021/06/29 03:11:48;;;;;;;20.90;18.30;;;;;;;;;;2057647;28;20190;-58
2021/06/29 03:12:48;;;;;;;20.50;18.38;;;;;;;;;;2050604;28;20183;-62
2021/06/29 03:13:48;;;;;;;19.15;17.27;;;;;;;;;;2072263;28;20272;-61
2021/06/29 03:14:59;;;;;;;20.77;18.70;;;;;;;;;;2058361;28;20205;-60
2021/06/29 03:15:59;;;;;;;24.27;21.67;;;;;;;;;;2065348;28;20205;-61
2021/06/29 03:16:59;;;;;;;19.55;17.60;;;;;;;;;;2062526;28;20748;-61
2021/06/29 03:17:59;;;;;;;20.15;18.02;;;;;;;;;;2058657;28;20181;-62
2021/06/29 03:19:00;;;;;;;19.77;17.83;;;;;;;;;;2053873;28;20174;-62
2021/06/29 03:20:00;;;;;;;20.00;18.00;;;;;;;;;;2054404;28;20174;-62
2021/06/29 03:21:01;;;;;;;19.90;17.90;;;;;;;;;;2052584;28;20226;-61
2021/06/29 03:22:02;;;;;;;25.88;18.23;;;;;;;;;;2053157;28;20274;-59
2021/06/29 03:23:02;;;;;;;21.23;19.00;;;;;;;;;;2058427;28;20666;-62
2021/06/29 03:24:03;;;;;;;20.40;18.50;;;;;;;;;;2060889;28;20306;-62
2021/06/29 03:25:04;;;;;;;19.77;17.83;;;;;;;;;;2061523;28;20213;-62
2021/06/29 03:26:05;;;;;;;19.25;17.45;;;;;;;;;;2062139;28;20173;-62
2021/06/29 03:27:05;;;;;;;19.10;17.30;;;;;;;;;;2053967;28;20673;-61
2021/06/29 03:28:05;;;;;;;17.98;16.27;;;;;;;;;;2062798;28;20197;-61
2021/06/29 03:29:06;;;;;;;19.38;17.48;;;;;;;;;;2062146;28;20540;-62
2021/06/29 03:30:07;;;;;;;17.75;16.13;;;;;;;;;;2059294;28;20185;-64
2021/06/29 03:31:08;;;;;;;18.13;16.42;;;;;;;;;;2062345;28;20250;-61
2021/06/29 03:32:08;;;;;;;18.90;17.10;;;;;;;;;;2061074;28;20332;-63
2021/06/29 03:33:08;;;;;;;18.50;16.77;;;;;;;;;;2061193;28;20193;-61
2021/06/29 03:34:09;;;;;;;18.05;16.33;;;;;;;;;;2055630;28;20211;-61
2021/06/29 03:35:10;;;;;;;20.55;17.65;;;;;;;;;;2061242;28;20206;-61
2021/06/29 03:36:11;;;;;;;18.90;16.88;;;;;;;;;;2054676;28;20767;-59
2021/06/29 03:37:11;;;;;;;19.73;17.67;;;;;;;;;;2059717;28;20166;-62
2021/06/29 03:38:12;;;;;;;19.60;17.58;;;;;;;;;;2056231;28;20212;-60
2021/06/29 03:39:12;;;;;;;19.08;17.33;;;;;;;;;;2060054;28;20193;-60
2021/06/29 03:40:13;;;;;;;19.02;16.98;;;;;;;;;;2056598;28;20177;-58
2021/06/29 03:41:13;;;;;;;20.08;18.17;;;;;;;;;;2059228;28;20174;-62
2021/06/29 03:42:13;;;;;;;19.50;17.80;;;;;;;;;;2052368;28;20180;-61
2021/06/29 03:43:14;;;;;;;20.83;17.75;;;;;;;;;;2059719;28;20167;-62
2021/06/29 03:44:14;;;;;;;19.42;17.42;;;;;;;;;;2060999;28;20169;-59
2021/06/29 03:45:14;;;;;;;18.83;17.10;;;;;;;;;;2054003;28;20177;-61
2021/06/29 03:46:14;;;;;;;20.42;18.30;;;;;;;;;;2057172;28;20212;-63
2021/06/29 03:47:15;;;;;;;19.20;17.30;;;;;;;;;;2056985;28;20590;-58
2021/06/29 03:48:15;;;;;;;18.40;16.58;;;;;;;;;;2056511;28;20526;-62
2021/06/29 03:49:15;;;;;;;18.90;17.02;;;;;;;;;;2059317;28;20183;-61
2021/06/29 03:50:15;;;;;;;22.10;18.05;;;;;;;;;;2061417;28;20201;-60
2021/06/29 03:51:16;;;;;;;19.85;17.95;;;;;;;;;;2063408;28;20188;-61
2021/06/29 03:52:16;;;;;;;18.80;16.70;;;;;;;;;;2060260;28;20178;-60
2021/06/29 03:53:16;;;;;;;19.38;17.20;;;;;;;;;;2060226;28;20169;-60
2021/06/29 03:54:16;;;;;;;18.83;17.05;;;;;;;;;;2059896;28;20178;-60
2021/06/29 03:55:17;;;;;;;17.83;15.95;;;;;;;;;;2060756;28;20169;-60
2021/06/29 03:56:31;;;;;;;19.08;17.38;;;;;;;;;;2060301;28;20177;-59
2021/06/29 03:57:31;;;;;;;18.23;16.58;;;;;;;;;;2061779;28;20165;-60
2021/06/29 03:58:31;;;;;;;18.08;16.25;;;;;;;;;;2058039;28;20655;-62
2021/06/29 03:59:32;;;;;;;19.55;17.50;;;;;;;;;;2061439;28;20170;-62
2021/06/29 04:00:32;;;;;;;20.90;17.85;;;;;;;;;;2057546;28;20185;-62
2021/06/29 04:01:32;;;;;;;20.35;17.83;;;;;;;;;;2061721;28;20212;-62
2021/06/29 04:02:32;;;;;;;17.50;15.90;;;;;;;;;;2064773;28;20654;-62
2021/06/29 04:03:33;;;;;;;18.58;16.67;;;;;;;;;;2070517;28;20296;-62
2021/06/29 04:04:33;;;;;;;18.73;16.92;;;;;;;;;;2066119;28;20748;-62
2021/06/29 04:05:33;;;;;;;18.38;16.50;;;;;;;;;;2053832;28;20175;-62
2021/06/29 04:06:35;;;;;;;24.15;17.38;;;;;;;;;;2051859;28;20187;-62
2021/06/29 04:07:35;;;;;;;20.15;16.92;;;;;;;;;;2062453;28;20853;-62
2021/06/29 04:08:35;;;;;;;18.45;16.65;;;;;;;;;;2054600;28;20185;-59
2021/06/29 04:09:37;;;;;;;21.42;18.25;;;;;;;;;;2063202;28;20510;-62
2021/06/29 04:10:38;;;;;;;18.73;16.88;;;;;;;;;;2057863;28;20195;-61
2021/06/29 04:11:38;;;;;;;21.98;16.70;;;;;;;;;;2064067;28;20674;-62
2021/06/29 04:12:38;;;;;;;20.15;18.00;;;;;;;;;;2058401;28;20200;-61
2021/06/29 04:13:39;;;;;;;19.90;17.77;;;;;;;;;;2057540;28;20178;-61
2021/06/29 04:14:39;;;;;;;19.20;17.30;;;;;;;;;;2063712;28;20737;-62
2021/06/29 04:15:39;;;;;;;18.08;16.33;;;;;;;;;;2056153;28;20652;-62
2021/06/29 04:16:39;;;;;;;19.67;16.60;;;;;;;;;;2065376;28;20752;-63
2021/06/29 04:17:40;;;;;;;17.33;15.65;;;;;;;;;;2058133;28;20311;-62
2021/06/29 04:18:40;;;;;;;18.83;17.05;;;;;;;;;;2066098;28;20182;-62
2021/06/29 04:19:41;;;;;;;18.23;16.52;;;;;;;;;;2055005;28;20175;-61
2021/06/29 04:20:41;;;;;;;20.35;16.90;;;;;;;;;;2055707;28;20167;-61
2021/06/29 04:21:41;;;;;;;19.95;17.73;;;;;;;;;;2056390;28;20186;-61
2021/06/29 04:22:42;;;;;;;18.45;16.20;;;;;;;;;;2066990;28;20189;-62
2021/06/29 04:23:44;;;;;;;18.02;16.23;;;;;;;;;;2053640;28;20191;-61
2021/06/29 04:24:44;;;;;;;18.52;16.75;;;;;;;;;;2052530;28;20570;-62
2021/06/29 04:25:44;;;;;;;18.70;16.83;;;;;;;;;;2051668;28;20234;-62
2021/06/29 04:26:44;;;;;;;18.08;15.93;;;;;;;;;;2066158;28;20185;-60
2021/06/29 04:27:46;;;;;;;20.23;16.23;;;;;;;;;;2059101;28;20178;-61
2021/06/29 04:28:46;;;;;;;19.48;15.80;;;;;;;;;;2058933;28;20183;-62
2021/06/29 04:29:46;;;;;;;18.02;16.33;;;;;;;;;;2056839;28;20244;-61
2021/06/29 04:30:47;;;;;;;16.58;15.00;;;;;;;;;;2061790;28;20254;-59
2021/06/29 04:31:47;;;;;;;16.83;15.07;;;;;;;;;;2050600;28;20186;-61
2021/06/29 04:32:47;;;;;;;17.55;15.52;;;;;;;;;;2065396;28;20268;-62
2021/06/29 04:33:48;;;;;;;18.60;16.17;;;;;;;;;;2055850;28;20174;-61
2021/06/29 04:34:48;;;;;;;18.08;16.42;;;;;;;;;;2065490;28;20578;-61
2021/06/29 04:35:48;;;;;;;18.33;16.50;;;;;;;;;;2049229;28;20186;-63
2021/06/29 04:36:48;;;;;;;17.95;16.00;;;;;;;;;;2055040;28;20218;-63
2021/06/29 04:37:49;;;;;;;18.92;16.98;;;;;;;;;;2056085;28;20187;-61
2021/06/29 04:38:49;;;;;;;18.50;16.70;;;;;;;;;;2053965;28;20182;-60
2021/06/29 04:39:49;;;;;;;20.63;16.58;;;;;;;;;;2067483;28;20192;-62
2021/06/29 04:40:50;;;;;;;17.48;15.68;;;;;;;;;;2060840;28;20185;-61
2021/06/29 04:41:50;;;;;;;18.65;15.90;;;;;;;;;;2065220;28;20162;-59
2021/06/29 04:42:50;;;;;;;19.83;16.35;;;;;;;;;;2066006;28;20240;-61
2021/06/29 04:43:50;;;;;;;17.15;15.43;;;;;;;;;;2064260;28;20304;-60
2021/06/29 04:44:51;;;;;;;17.60;15.80;;;;;;;;;;2065665;28;20255;-59
2021/06/29 04:45:51;;;;;;;16.88;15.20;;;;;;;;;;2057808;28;20185;-61
2021/06/29 04:46:52;;;;;;;17.17;14.82;;;;;;;;;;2058036;28;20178;-56
2021/06/29 04:47:54;;;;;;;17.13;15.50;;;;;;;;;;2062488;28;20252;-61
2021/06/29 04:48:54;;;;;;;17.85;16.05;;;;;;;;;;2059632;28;20653;-57
2021/06/29 04:49:55;;;;;;;20.63;16.33;;;;;;;;;;2055084;28;20201;-61
2021/06/29 04:50:55;;;;;;;22.40;15.75;;;;;;;;;;2065836;28;20562;-61
2021/06/29 04:51:56;;;;;;;17.38;15.80;;;;;;;;;;2064984;28;20268;-59
2021/06/29 04:52:56;;;;;;;17.95;15.60;;;;;;;;;;2060109;28;20175;-59
2021/06/29 04:53:56;;;;;;;17.75;15.80;;;;;;;;;;2063424;28;20180;-57
2021/06/29 04:54:56;;;;;;;16.98;15.23;;;;;;;;;;2054159;28;20218;-58
2021/06/29 04:55:57;;;;;;;18.83;15.82;;;;;;;;;;2064040;28;20172;-61
2021/06/29 04:56:57;;;;;;;20.48;16.30;;;;;;;;;;2054047;28;20211;-60
2021/06/29 04:57:57;;;;;;;18.05;14.90;;;;;;;;;;2060366;28;20171;-62
2021/06/29 04:58:58;;;;;;;18.02;16.17;;;;;;;;;;2063073;28;20169;-62
2021/06/29 04:59:59;;;;;;;17.60;15.93;;;;;;;;;;2053771;28;20613;-63
2021/06/29 05:01:00;;;;;;;18.08;16.35;;;;;;;;;;2059937;28;20718;-59
2021/06/29 05:02:00;;;;;;;17.52;15.88;;;;;;;;;;2065302;28;20170;-62
2021/06/29 05:03:03;;;;;;;18.02;15.25;;;;;;;;;;2060248;28;20232;-62
2021/06/29 05:04:03;;;;;;;16.88;15.38;;;;;;;;;;2069410;28;20184;-62
2021/06/29 05:05:05;;;;;;;17.13;15.30;;;;;;;;;;2062363;28;20209;-61
2021/06/29 05:06:05;;;;;;;18.10;15.02;;;;;;;;;;2063137;28;20240;-62
2021/06/29 05:07:05;;;;;;;17.58;15.90;;;;;;;;;;2061533;28;20323;-61
2021/06/29 05:08:07;;;;;;;16.45;14.88;;;;;;;;;;2061271;28;20189;-63
2021/06/29 05:09:07;;;;;;;15.13;13.70;;;;;;;;;;2052346;28;20243;-61
2021/06/29 05:10:10;;;;;;;16.13;13.40;;;;;;;;;;2056375;28;20251;-61
2021/06/29 05:11:11;;;;;;;14.30;12.80;;;;;;;;;;2059148;28;20705;-61
2021/06/29 05:12:11;;;;;;;14.20;12.77;;;;;;;;;;2061715;28;20189;-58
2021/06/29 05:13:11;;;;;;;13.07;11.52;;;;;;;;;;2064467;28;20176;-59
2021/06/29 05:14:12;;;;;;;13.55;12.23;;;;;;;;;;2063473;28;20177;-61
2021/06/29 05:15:12;;;;;;;13.07;11.98;;;;;;;;;;2061769;28;20317;-60
2021/06/29 05:16:12;;;;;;;14.65;12.63;;;;;;;;;;2066161;28;20182;-62
2021/06/29 05:17:13;;;;;;;15.20;13.35;;;;;;;;;;2060013;28;20241;-59
2021/06/29 05:18:14;;;;;;;11.40;10.30;;;;;;;;;;2057140;28;20165;-60
2021/06/29 05:19:15;;;;;;;11.77;10.43;;;;;;;;;;2066129;28;20821;-57
2021/06/29 05:20:15;;;;;;;11.80;10.60;;;;;;;;;;2062020;28;20167;-61
2021/06/29 05:21:16;;;;;;;11.48;10.27;;;;;;;;;;2054392;28;20190;-64
2021/06/29 05:22:16;;;;;;;12.20;10.75;;;;;;;;;;2058509;28;20578;-63
2021/06/29 05:23:16;;;;;;;11.15;10.15;;;;;;;;;;2065609;28;20546;-63
2021/06/29 05:24:16;;;;;;;15.80;11.50;;;;;;;;;;2064211;28;20170;-63
2021/06/29 05:25:17;;;;;;;12.40;9.75;;;;;;;;;;2059251;28;20183;-61
2021/06/29 05:26:17;;;;;;;9.35;8.45;;;;;;;;;;2066102;28;20185;-62
2021/06/29 05:27:18;;;;;;;10.40;8.60;;;;;;;;;;2069038;28;20265;-62
2021/06/29 05:28:19;;;;;;;10.50;9.07;;;;;;;;;;2058785;28;20613;-63
2021/06/29 05:29:19;;;;;;;11.88;9.80;;;;;;;;;;2053217;28;20190;-62
2021/06/29 05:30:20;;;;;;;9.43;8.25;;;;;;;;;;2061361;28;20257;-62
2021/06/29 05:31:20;;;;;;;13.27;11.93;;;;;;;;;;2060192;28;20201;-60
2021/06/29 05:32:20;;;;;;;9.50;8.60;;;;;;;;;;2053492;28;20178;-62
2021/06/29 05:33:21;;;;;;;8.80;7.97;;;;;;;;;;2058932;28;20205;-61
2021/06/29 05:34:21;;;;;;;10.23;9.20;;;;;;;;;;2059972;28;20210;-61
2021/06/29 05:35:21;;;;;;;20.70;18.42;;;;;;;;;;2055381;28;20178;-59
2021/06/29 05:36:22;;;;;;;10.57;9.65;;;;;;;;;;2055501;28;20934;-63
2021/06/29 05:37:22;;;;;;;12.00;10.02;;;;;;;;;;2057369;28;20268;-62
2021/06/29 05:38:22;;;;;;;11.88;10.38;;;;;;;;;;2056653;28;20175;-61
2021/06/29 05:39:22;;;;;;;14.75;13.38;;;;;;;;;;2056364;28;20175;-59
2021/06/29 05:40:23;;;;;;;9.35;8.32;;;;;;;;;;2061444;28;20177;-60
2021/06/29 05:41:23;;;;;;;10.13;9.20;;;;;;;;;;2059532;28;20182;-61
2021/06/29 05:42:23;;;;;;;8.25;7.43;;;;;;;;;;2059562;28;20186;-60
2021/06/29 05:43:23;;;;;;;8.10;7.35;;;;;;;;;;2057498;28;20603;-61
2021/06/29 05:44:24;;;;;;;8.48;7.60;;;;;;;;;;2062255;28;20253;-59
2021/06/29 05:45:24;;;;;;;8.00;7.32;;;;;;;;;;2064794;28;20176;-62
2021/06/29 05:46:24;;;;;;;8.77;8.02;;;;;;;;;;2062089;28;20571;-60
2021/06/29 05:47:25;;;;;;;8.20;7.47;;;;;;;;;;2065006;28;20173;-60
2021/06/29 05:48:30;;;;;;;7.90;7.20;;;;;;;;;;2059343;28;20170;-61
2021/06/29 05:49:30;;;;;;;11.43;8.40;;;;;;;;;;2049736;28;20171;-62
2021/06/29 05:50:31;;;;;;;8.23;6.95;;;;;;;;;;2063187;28;20306;-62
2021/06/29 05:51:31;;;;;;;8.77;8.13;;;;;;;;;;2061442;28;20189;-59
2021/06/29 05:52:31;;;;;;;8.77;7.85;;;;;;;;;;2062719;28;20174;-59
2021/06/29 05:53:32;;;;;;;7.82;7.28;;;;;;;;;;2060827;28;20169;-61
2021/06/29 05:54:32;;;;;;;14.07;10.98;;;;;;;;;;2060158;28;20420;-57
2021/06/29 05:55:32;;;;;;;17.75;15.32;;;;;;;;;;2056465;28;20175;-56
2021/06/29 05:56:33;;;;;;;8.75;7.78;;;;;;;;;;2055769;28;20252;-57